createdAt,value
2022-11-05T00:00:50.818Z,9.463038
2022-11-05T00:01:50.841Z,9.463041
2022-11-05T00:02:50.797Z,9.463027
2022-11-05T00:03:50.872Z,9.463012
2022-11-05T00:04:50.783Z,9.463017
2022-11-05T00:05:50.779Z,9.463017
2022-11-05T00:06:50.777Z,9.463032
2022-11-05T00:07:50.759Z,9.462987
2022-11-05T00:08:50.762Z,9.462965
2022-11-05T00:09:50.754Z,9.463077
2022-11-05T00:10:51.017Z,9.463025
2022-11-05T00:11:50.734Z,9.462968
2022-11-05T00:12:50.732Z,9.462982
2022-11-05T00:13:50.744Z,9.462994
2022-11-05T00:14:50.718Z,9.462966
2022-11-05T00:15:50.703Z,9.462971
2022-11-05T00:16:50.694Z,9.463004
2022-11-05T00:17:50.689Z,9.462963
2022-11-05T00:18:50.681Z,9.462979
2022-11-05T00:19:51.060Z,9.463055
2022-11-05T00:20:50.814Z,9.463098
2022-11-05T00:21:50.922Z,9.463065
2022-11-05T00:22:50.646Z,9.463176
2022-11-05T00:23:50.645Z,9.463105
2022-11-05T00:24:50.632Z,9.463125
2022-11-05T00:25:50.631Z,9.463056
2022-11-05T00:26:50.626Z,9.463095
2022-11-05T00:27:51.734Z,9.463041
2022-11-05T00:28:50.613Z,9.462996
2022-11-05T00:29:50.644Z,9.463043
2022-11-05T00:30:50.598Z,9.463111
2022-11-05T00:31:50.588Z,9.463084
2022-11-05T00:32:51.234Z,9.463099
2022-11-05T00:33:50.790Z,9.463133
2022-11-05T00:34:50.563Z,9.463095
2022-11-05T00:35:50.577Z,9.463129
2022-11-05T00:36:50.564Z,9.463021
2022-11-05T00:37:50.859Z,9.463091
2022-11-05T00:38:50.542Z,9.463009
2022-11-05T00:39:50.531Z,9.462997
2022-11-05T00:40:50.990Z,9.463209
2022-11-05T00:41:50.524Z,9.463125
2022-11-05T00:42:50.507Z,9.463073
2022-11-05T00:43:50.525Z,9.463125
2022-11-05T00:44:50.500Z,9.463063
2022-11-05T00:45:50.523Z,9.463054
2022-11-05T00:46:50.485Z,9.463052
2022-11-05T00:47:50.499Z,9.463022
2022-11-05T00:48:50.470Z,9.463040
2022-11-05T00:49:50.475Z,9.463114
2022-11-05T00:50:51.371Z,9.463084
2022-11-05T00:51:50.462Z,9.463045
2022-11-05T00:52:50.466Z,9.463010
2022-11-05T00:53:50.438Z,9.463060
2022-11-05T00:54:50.456Z,9.462999
2022-11-05T00:55:50.427Z,9.462990
2022-11-05T00:56:50.410Z,9.462995
2022-11-05T00:57:50.404Z,9.463053
2022-11-05T00:58:50.405Z,9.463012
2022-11-05T00:59:50.402Z,9.463008
2022-11-05T01:00:50.394Z,9.463017
2022-11-05T01:01:50.649Z,9.462986
2022-11-05T01:02:50.644Z,9.462992
2022-11-05T01:03:51.912Z,9.463037
2022-11-05T01:04:50.368Z,9.463049
2022-11-05T01:05:50.380Z,9.463066
2022-11-05T01:06:50.349Z,9.463050
2022-11-05T01:07:50.346Z,9.463025
2022-11-05T01:08:50.330Z,9.463015
2022-11-05T01:09:50.328Z,9.462946
2022-11-05T01:10:50.323Z,9.463024
2022-11-05T01:11:50.329Z,9.462934
2022-11-05T01:12:50.323Z,9.462981
2022-11-05T01:13:50.300Z,9.463029
2022-11-05T01:14:50.285Z,9.463035
2022-11-05T01:15:50.281Z,9.463004
2022-11-05T01:16:50.278Z,9.463038
2022-11-05T01:17:50.303Z,9.462968
2022-11-05T01:18:50.281Z,9.462975
2022-11-05T01:19:51.617Z,9.462970
2022-11-05T01:20:50.244Z,9.462966
2022-11-05T01:21:50.242Z,9.462966
2022-11-05T01:22:50.243Z,9.462940
2022-11-05T01:23:50.225Z,9.462945
2022-11-05T01:24:50.229Z,9.462939
2022-11-05T01:25:50.221Z,9.462947
2022-11-05T01:26:50.202Z,9.462974
2022-11-05T01:27:50.217Z,9.462977
2022-11-05T01:28:50.326Z,9.462938
2022-11-05T01:29:50.205Z,9.462979
2022-11-05T01:30:50.183Z,9.462988
2022-11-05T01:31:50.171Z,9.462923
2022-11-05T01:32:50.167Z,9.462945
2022-11-05T01:33:50.288Z,9.462974
2022-11-05T01:34:50.149Z,9.462962
2022-11-05T01:35:50.154Z,9.462911
2022-11-05T01:36:50.135Z,9.462936
2022-11-05T01:37:50.129Z,9.462996
2022-11-05T01:38:50.127Z,9.463009
2022-11-05T01:39:50.128Z,9.462945
2022-11-05T01:40:50.112Z,9.462939
2022-11-05T01:41:50.121Z,9.462951
2022-11-05T01:42:50.106Z,9.462935
2022-11-05T01:43:50.091Z,9.462925
2022-11-05T01:44:50.613Z,9.462923
2022-11-05T01:45:50.074Z,9.462917
2022-11-05T01:46:50.084Z,9.462957
2022-11-05T01:47:50.066Z,9.462970
2022-11-05T01:48:50.052Z,9.462976
2022-11-05T01:49:50.138Z,9.462969
2022-11-05T01:50:50.055Z,9.463005
2022-11-05T01:51:50.812Z,9.463016
2022-11-05T01:52:50.043Z,9.462995
2022-11-05T01:53:50.033Z,9.462942
2022-11-05T01:54:50.005Z,9.462932
2022-11-05T01:55:50.005Z,9.462930
2022-11-05T01:56:50.021Z,9.462947
2022-11-05T01:57:49.985Z,9.462943
2022-11-05T01:58:50.008Z,9.462914
2022-11-05T01:59:49.972Z,9.462867
2022-11-05T02:00:49.969Z,9.462919
2022-11-05T02:01:50.775Z,9.462955
2022-11-05T02:02:50.238Z,9.463028
2022-11-05T02:03:49.989Z,9.463069
2022-11-05T02:04:49.947Z,9.462928
2022-11-05T02:05:49.963Z,9.462923
2022-11-05T02:06:49.935Z,9.462835
2022-11-05T02:07:49.922Z,9.463040
2022-11-05T02:08:50.612Z,9.463040
2022-11-05T02:09:49.903Z,9.463159
2022-11-05T02:10:49.936Z,9.463021
2022-11-05T02:11:49.885Z,9.462914
2022-11-05T02:12:49.900Z,9.462897
2022-11-05T02:13:49.881Z,9.463007
2022-11-05T02:14:49.868Z,9.462980
2022-11-05T02:15:49.864Z,9.462985
2022-11-05T02:16:49.855Z,9.463053
2022-11-05T02:17:49.848Z,9.463040
2022-11-05T02:18:49.845Z,9.463116
2022-11-05T02:19:49.856Z,9.462776
2022-11-05T02:20:52.336Z,9.462925
2022-11-05T02:21:50.236Z,9.462949
2022-11-05T02:22:49.813Z,9.462971
2022-11-05T02:23:49.808Z,9.462953
2022-11-05T02:24:49.803Z,9.462949
2022-11-05T02:25:49.797Z,9.463039
2022-11-05T02:26:49.779Z,9.463029
2022-11-05T02:27:49.798Z,9.463011
2022-11-05T02:28:49.781Z,9.463074
2022-11-05T02:29:49.760Z,9.462978
2022-11-05T02:30:49.760Z,9.463075
2022-11-05T02:31:49.749Z,9.463050
2022-11-05T02:32:49.740Z,9.463046
2022-11-05T02:33:49.750Z,9.463057
2022-11-05T02:34:49.727Z,9.463019
2022-11-05T02:35:50.300Z,9.463002
2022-11-05T02:36:49.722Z,9.463062
2022-11-05T02:37:49.730Z,9.463093
2022-11-05T02:38:49.694Z,9.463066
2022-11-05T02:39:49.695Z,9.463009
2022-11-05T02:40:49.686Z,9.463156
2022-11-05T02:41:49.676Z,9.463058
2022-11-05T02:42:49.673Z,9.463111
2022-11-05T02:43:49.670Z,9.462961
2022-11-05T02:44:49.669Z,9.463064
2022-11-05T02:45:49.649Z,9.463019
2022-11-05T02:46:49.651Z,9.463038
2022-11-05T02:47:50.178Z,9.463051
2022-11-05T02:48:49.626Z,9.463073
2022-11-05T02:49:50.293Z,9.463156
2022-11-05T02:50:49.644Z,9.463055
2022-11-05T02:51:49.619Z,9.463070
2022-11-05T02:52:49.611Z,9.463100
2022-11-05T02:53:49.616Z,9.462974
2022-11-05T02:54:49.594Z,9.463045
2022-11-05T02:55:49.614Z,9.463122
2022-11-05T02:56:49.596Z,9.462995
2022-11-05T02:57:49.565Z,9.463449
2022-11-05T02:58:49.551Z,9.463519
2022-11-05T02:59:50.828Z,9.463400
2022-11-05T03:00:49.538Z,9.463124
2022-11-05T03:01:49.694Z,9.463031
2022-11-05T03:02:49.730Z,9.463108
2022-11-05T03:03:49.521Z,9.463032
2022-11-05T03:04:49.517Z,9.463071
2022-11-05T03:05:49.508Z,9.463051
2022-11-05T03:06:49.556Z,9.462976
2022-11-05T03:07:49.490Z,9.462999
2022-11-05T03:08:49.488Z,9.462992
2022-11-05T03:09:49.745Z,9.463005
2022-11-05T03:10:50.649Z,9.463014
2022-11-05T03:11:49.464Z,9.462940
2022-11-05T03:12:49.455Z,9.463017
2022-11-05T03:13:49.444Z,9.462800
2022-11-05T03:14:50.106Z,9.462919
2022-11-05T03:15:49.861Z,9.463013
2022-11-05T03:16:49.434Z,9.463040
2022-11-05T03:17:49.432Z,9.462998
2022-11-05T03:18:49.416Z,9.462990
2022-11-05T03:19:49.413Z,9.462977
2022-11-05T03:20:49.853Z,9.462968
2022-11-05T03:21:49.391Z,9.463041
2022-11-05T03:22:49.398Z,9.463016
2022-11-05T03:23:49.387Z,9.462953
2022-11-05T03:24:49.374Z,9.462926
2022-11-05T03:25:49.387Z,9.462902
2022-11-05T03:26:49.373Z,9.462858
2022-11-05T03:27:49.351Z,9.462898
2022-11-05T03:28:49.353Z,9.462893
2022-11-05T03:29:49.338Z,9.462977
2022-11-05T03:30:49.331Z,9.462951
2022-11-05T03:31:49.334Z,9.462965
2022-11-05T03:32:49.322Z,9.462908
2022-11-05T03:33:49.335Z,9.462984
2022-11-05T03:34:49.302Z,9.463051
2022-11-05T03:35:49.304Z,9.463003
2022-11-05T03:36:49.292Z,9.462997
2022-11-05T03:37:49.284Z,9.462920
2022-11-05T03:38:49.780Z,9.463049
2022-11-05T03:39:49.270Z,9.462995
2022-11-05T03:40:49.260Z,9.462882
2022-11-05T03:41:49.287Z,9.462918
2022-11-05T03:42:49.248Z,9.462964
2022-11-05T03:43:49.652Z,9.462883
2022-11-05T03:44:49.237Z,9.462873
2022-11-05T03:45:49.223Z,9.463058
2022-11-05T03:46:49.233Z,9.462994
2022-11-05T03:47:49.632Z,9.463131
2022-11-05T03:48:49.289Z,9.463172
2022-11-05T03:49:49.204Z,9.463188
2022-11-05T03:50:49.184Z,9.462998
2022-11-05T03:51:49.187Z,9.462956
2022-11-05T03:52:49.179Z,9.462955
2022-11-05T03:53:49.819Z,9.463063
2022-11-05T03:54:49.158Z,9.463032
2022-11-05T03:55:49.159Z,9.463077
2022-11-05T03:56:49.159Z,9.462922
2022-11-05T03:57:49.161Z,9.462964
2022-11-05T03:58:50.032Z,9.462936
2022-11-05T03:59:49.141Z,9.463021
2022-11-05T04:00:49.112Z,9.463054
2022-11-05T04:01:49.293Z,9.462980
2022-11-05T04:02:49.272Z,9.463036
2022-11-05T04:03:49.101Z,9.463011
2022-11-05T04:04:49.096Z,9.462963
2022-11-05T04:05:49.080Z,9.462996
2022-11-05T04:06:49.629Z,9.462949
2022-11-05T04:07:49.064Z,9.462904
2022-11-05T04:08:49.059Z,9.462904
2022-11-05T04:09:49.064Z,9.462956
2022-11-05T04:10:49.085Z,9.462986
2022-11-05T04:11:49.687Z,9.463024
2022-11-05T04:12:49.032Z,9.463017
2022-11-05T04:13:49.053Z,9.462988
2022-11-05T04:14:49.014Z,9.463049
2022-11-05T04:15:49.032Z,9.463045
2022-11-05T04:16:49.003Z,9.462968
2022-11-05T04:17:48.993Z,9.462970
2022-11-05T04:18:48.991Z,9.463009
2022-11-05T04:19:48.988Z,9.463006
2022-11-05T04:20:48.969Z,9.462904
2022-11-05T04:21:48.982Z,9.462920
2022-11-05T04:22:48.960Z,9.462938
2022-11-05T04:23:48.955Z,9.462901
2022-11-05T04:24:48.949Z,9.462964
2022-11-05T04:25:48.987Z,9.462976
2022-11-05T04:26:48.943Z,9.462950
2022-11-05T04:27:48.924Z,9.462993
2022-11-05T04:28:48.922Z,9.462951
2022-11-05T04:29:49.107Z,9.462953
2022-11-05T04:30:48.910Z,9.462938
2022-11-05T04:31:48.921Z,9.462951
2022-11-05T04:32:48.888Z,9.462945
2022-11-05T04:33:48.888Z,9.462967
2022-11-05T04:34:48.871Z,9.462946
2022-11-05T04:35:48.873Z,9.462972
2022-11-05T04:36:48.866Z,9.462997
2022-11-05T04:37:48.855Z,9.463008
2022-11-05T04:38:48.857Z,9.463023
2022-11-05T04:39:48.835Z,9.463032
2022-11-05T04:40:48.829Z,9.463054
2022-11-05T04:41:48.965Z,9.463035
2022-11-05T04:42:48.830Z,9.463104
2022-11-05T04:43:48.815Z,9.463050
2022-11-05T04:44:48.808Z,9.463008
2022-11-05T04:45:48.825Z,9.462995
2022-11-05T04:46:48.792Z,9.463003
2022-11-05T04:47:49.201Z,9.462964
2022-11-05T04:48:48.778Z,9.462977
2022-11-05T04:49:48.777Z,9.462960
2022-11-05T04:50:48.761Z,9.463003
2022-11-05T04:51:48.762Z,9.462997
2022-11-05T04:52:48.749Z,9.462985
2022-11-05T04:53:48.743Z,9.462950
2022-11-05T04:54:48.737Z,9.463006
2022-11-05T04:55:48.724Z,9.462970
2022-11-05T04:56:48.715Z,9.462990
2022-11-05T04:57:48.720Z,9.462973
2022-11-05T04:58:48.724Z,9.463019
2022-11-05T04:59:48.704Z,9.462978
2022-11-05T05:00:48.893Z,9.462932
2022-11-05T05:01:48.771Z,9.462973
2022-11-05T05:02:48.679Z,9.462963
2022-11-05T05:03:48.670Z,9.462964
2022-11-05T05:04:48.673Z,9.462942
2022-11-05T05:05:48.682Z,9.462964
2022-11-05T05:06:49.644Z,9.462957
2022-11-05T05:07:48.644Z,9.462991
2022-11-05T05:08:48.632Z,9.462998
2022-11-05T05:09:48.634Z,9.462981
2022-11-05T05:10:48.619Z,9.462991
2022-11-05T05:11:49.216Z,9.462962
2022-11-05T05:12:48.614Z,9.462988
2022-11-05T05:13:48.602Z,9.462944
2022-11-05T05:14:48.609Z,9.462958
2022-11-05T05:15:49.474Z,9.462975
2022-11-05T05:16:48.586Z,9.462950
2022-11-05T05:17:48.597Z,9.462956
2022-11-05T05:18:48.575Z,9.462984
2022-11-05T05:19:48.561Z,9.462980
2022-11-05T05:20:48.561Z,9.462904
2022-11-05T05:21:48.579Z,9.462909
2022-11-05T05:22:48.540Z,9.462895
2022-11-05T05:23:48.556Z,9.462949
2022-11-05T05:24:52.584Z,9.462961
2022-11-05T05:25:48.522Z,9.462934
2022-11-05T05:26:48.542Z,9.462940
2022-11-05T05:27:48.513Z,9.462951
2022-11-05T05:28:49.229Z,9.462999
2022-11-05T05:29:48.504Z,9.463017
2022-11-05T05:30:48.494Z,9.462988
2022-11-05T05:31:48.495Z,9.463024
2022-11-05T05:32:48.473Z,9.462975
2022-11-05T05:33:48.498Z,9.462985
2022-11-05T05:34:48.465Z,9.462982
2022-11-05T05:35:48.459Z,9.462970
2022-11-05T05:36:48.450Z,9.462950
2022-11-05T05:37:48.451Z,9.462984
2022-11-05T05:38:48.455Z,9.462980
2022-11-05T05:39:48.426Z,9.462915
2022-11-05T05:40:48.424Z,9.462970
2022-11-05T05:41:48.423Z,9.462978
2022-11-05T05:42:49.150Z,9.463019
2022-11-05T05:43:48.410Z,9.462956
2022-11-05T05:44:48.433Z,9.462977
2022-11-05T05:45:48.396Z,9.462972
2022-11-05T05:46:48.385Z,9.462981
2022-11-05T05:47:48.376Z,9.462955
2022-11-05T05:48:48.372Z,9.462989
2022-11-05T05:49:48.402Z,9.462984
2022-11-05T05:50:48.361Z,9.462962
2022-11-05T05:51:48.357Z,9.462945
2022-11-05T05:52:48.360Z,9.462986
2022-11-05T05:53:48.339Z,9.463004
2022-11-05T05:54:48.369Z,9.462981
2022-11-05T05:55:48.331Z,9.462943
2022-11-05T05:56:48.312Z,9.462960
2022-11-05T05:57:48.413Z,9.462983
2022-11-05T05:58:48.299Z,9.462985
2022-11-05T05:59:48.302Z,9.462989
2022-11-05T06:00:48.302Z,9.462901
2022-11-05T06:01:48.427Z,9.462937
2022-11-05T06:02:48.409Z,9.462867
2022-11-05T06:03:48.328Z,9.463026
2022-11-05T06:04:48.277Z,9.463011
2022-11-05T06:05:48.369Z,9.463012
2022-11-05T06:06:48.292Z,9.462848
2022-11-05T06:07:48.278Z,9.462887
2022-11-05T06:08:48.230Z,9.462913
2022-11-05T06:09:48.232Z,9.462904
2022-11-05T06:10:48.859Z,9.463084
2022-11-05T06:11:48.219Z,9.463071
2022-11-05T06:12:48.263Z,9.462978
2022-11-05T06:13:48.219Z,9.463003
2022-11-05T06:14:48.301Z,9.463029
2022-11-05T06:15:48.216Z,9.463040
2022-11-05T06:16:48.176Z,9.463001
2022-11-05T06:17:51.705Z,9.463024
2022-11-05T06:18:48.176Z,9.463023
2022-11-05T06:19:48.162Z,9.463040
2022-11-05T06:20:48.156Z,9.463057
2022-11-05T06:21:48.292Z,9.463019
2022-11-05T06:22:48.167Z,9.462994
2022-11-05T06:23:48.165Z,9.463014
2022-11-05T06:24:48.134Z,9.463045
2022-11-05T06:25:48.131Z,9.463064
2022-11-05T06:26:48.120Z,9.463053
2022-11-05T06:27:48.185Z,9.463035
2022-11-05T06:28:48.124Z,9.463019
2022-11-05T06:29:48.094Z,9.463017
2022-11-05T06:30:48.099Z,9.463030
2022-11-05T06:31:48.125Z,9.463064
2022-11-05T06:32:48.082Z,9.463040
2022-11-05T06:33:48.077Z,9.463036
2022-11-05T06:34:48.065Z,9.463043
2022-11-05T06:35:48.056Z,9.463057
2022-11-05T06:36:48.043Z,9.463035
2022-11-05T06:37:48.185Z,9.463050
2022-11-05T06:38:48.035Z,9.463030
2022-11-05T06:39:48.051Z,9.463077
2022-11-05T06:40:48.038Z,9.463095
2022-11-05T06:42:16.511Z,9.463077
2022-11-05T06:42:49.016Z,9.463036
2022-11-05T06:43:48.011Z,9.463090
2022-11-05T06:44:48.008Z,9.463073
2022-11-05T06:45:47.996Z,9.463042
2022-11-05T06:46:48.761Z,9.463071
2022-11-05T06:47:47.969Z,9.463051
2022-11-05T06:48:47.990Z,9.462997
2022-11-05T06:49:48.133Z,9.463082
2022-11-05T06:50:48.356Z,9.463047
2022-11-05T06:51:48.895Z,9.463045
2022-11-05T06:52:47.944Z,9.462934
2022-11-05T06:53:47.955Z,9.463083
2022-11-05T06:54:47.934Z,9.463015
2022-11-05T06:55:47.937Z,9.462940
2022-11-05T06:56:47.913Z,9.463053
2022-11-05T06:57:47.917Z,9.463060
2022-11-05T06:58:47.898Z,9.462874
2022-11-05T06:59:47.910Z,9.462957
2022-11-05T07:00:48.733Z,9.463059
2022-11-05T07:01:48.528Z,9.463075
2022-11-05T07:02:47.905Z,9.462984
2022-11-05T07:03:47.884Z,9.463017
2022-11-05T07:04:47.865Z,9.462881
2022-11-05T07:05:47.877Z,9.462925
2022-11-05T07:06:47.871Z,9.462960
2022-11-05T07:07:47.876Z,9.462960
2022-11-05T07:08:47.835Z,9.462904
2022-11-05T07:09:47.862Z,9.462893
2022-11-05T07:10:47.825Z,9.462979
2022-11-05T07:11:47.816Z,9.462914
2022-11-05T07:12:47.817Z,9.462895
2022-11-05T07:13:47.824Z,9.463010
2022-11-05T07:14:47.804Z,9.462988
2022-11-05T07:15:47.799Z,9.462996
2022-11-05T07:16:47.786Z,9.462986
2022-11-05T07:17:47.834Z,9.462980
2022-11-05T07:18:47.799Z,9.463042
2022-11-05T07:19:47.768Z,9.463010
2022-11-05T07:20:47.770Z,9.463016
2022-11-05T07:21:47.757Z,9.463038
2022-11-05T07:22:47.744Z,9.463037
2022-11-05T07:23:47.774Z,9.463024
2022-11-05T07:24:47.739Z,9.462957
2022-11-05T07:25:47.752Z,9.463039
2022-11-05T07:26:47.724Z,9.463092
2022-11-05T07:27:47.723Z,9.462961
2022-11-05T07:28:48.134Z,9.462781
2022-11-05T07:29:47.705Z,9.462770
2022-11-05T07:30:48.220Z,9.462862
2022-11-05T07:31:47.700Z,9.462987
2022-11-05T07:32:47.687Z,9.463004
2022-11-05T07:33:47.685Z,9.462916
2022-11-05T07:34:47.673Z,9.462962
2022-11-05T07:35:47.666Z,9.463009
2022-11-05T07:36:47.671Z,9.463002
2022-11-05T07:37:47.685Z,9.462901
2022-11-05T07:38:47.650Z,9.462951
2022-11-05T07:39:47.643Z,9.463022
2022-11-05T07:40:47.648Z,9.462985
2022-11-05T07:41:47.651Z,9.462970
2022-11-05T07:42:48.196Z,9.462947
2022-11-05T07:43:47.605Z,9.462955
2022-11-05T07:44:47.615Z,9.462960
2022-11-05T07:45:47.587Z,9.462985
2022-11-05T07:46:47.583Z,9.462942
2022-11-05T07:47:47.649Z,9.462934
2022-11-05T07:48:47.562Z,9.462957
2022-11-05T07:49:47.566Z,9.462929
2022-11-05T07:50:47.550Z,9.462950
2022-11-05T07:51:47.544Z,9.462918
2022-11-05T07:52:47.547Z,9.462911
2022-11-05T07:53:47.545Z,9.462935
2022-11-05T07:54:47.531Z,9.462966
2022-11-05T07:55:47.526Z,9.462904
2022-11-05T07:56:47.507Z,9.462949
2022-11-05T07:57:47.645Z,9.462902
2022-11-05T07:58:47.495Z,9.462941
2022-11-05T07:59:47.490Z,9.462893
2022-11-05T08:00:47.629Z,9.462957
2022-11-05T08:01:47.686Z,9.462934
2022-11-05T08:02:47.741Z,9.462921
2022-11-05T08:03:47.657Z,9.462898
2022-11-05T08:04:47.451Z,9.462932
2022-11-05T08:05:47.457Z,9.462910
2022-11-05T08:06:47.452Z,9.462880
2022-11-05T08:07:47.433Z,9.462955
2022-11-05T08:08:47.432Z,9.462949
2022-11-05T08:09:47.426Z,9.462926
2022-11-05T08:10:47.410Z,9.463046
2022-11-05T08:11:47.405Z,9.462978
2022-11-05T08:12:48.086Z,9.462852
2022-11-05T08:13:47.429Z,9.462990
2022-11-05T08:14:47.397Z,9.463023
2022-11-05T08:15:47.383Z,9.462993
2022-11-05T08:16:47.365Z,9.463057
2022-11-05T08:17:47.755Z,9.463138
2022-11-05T08:18:47.350Z,9.463115
2022-11-05T08:19:47.347Z,9.463042
2022-11-05T08:20:47.369Z,9.463041
2022-11-05T08:21:47.330Z,9.463081
2022-11-05T08:22:47.326Z,9.463087
2022-11-05T08:23:47.334Z,9.463066
2022-11-05T08:24:47.304Z,9.463043
2022-11-05T08:25:47.324Z,9.463057
2022-11-05T08:26:47.310Z,9.463056
2022-11-05T08:27:47.294Z,9.463056
2022-11-05T08:28:47.309Z,9.463075
2022-11-05T08:29:47.304Z,9.463043
2022-11-05T08:30:47.266Z,9.463007
2022-11-05T08:31:47.260Z,9.463023
2022-11-05T08:32:47.253Z,9.463057
2022-11-05T08:33:47.254Z,9.463046
2022-11-05T08:34:47.254Z,9.463067
2022-11-05T08:35:47.237Z,9.463076
2022-11-05T08:36:48.935Z,9.463009
2022-11-05T08:37:47.222Z,9.463022
2022-11-05T08:38:47.209Z,9.463006
2022-11-05T08:39:47.201Z,9.463023
2022-11-05T08:40:47.202Z,9.463016
2022-11-05T08:41:47.213Z,9.463045
2022-11-05T08:42:47.174Z,9.463000
2022-11-05T08:43:47.240Z,9.462992
2022-11-05T08:44:47.191Z,9.462985
2022-11-05T08:45:47.193Z,9.462995
2022-11-05T08:46:47.320Z,9.462996
2022-11-05T08:47:47.246Z,9.463037
2022-11-05T08:48:47.136Z,9.462991
2022-11-05T08:49:47.137Z,9.463000
2022-11-05T08:50:47.130Z,9.463081
2022-11-05T08:51:47.114Z,9.463077
2022-11-05T08:52:48.018Z,9.463022
2022-11-05T08:53:47.118Z,9.462947
2022-11-05T08:54:47.101Z,9.463001
2022-11-05T08:55:47.143Z,9.462994
2022-11-05T08:56:48.079Z,9.463039
2022-11-05T08:57:47.083Z,9.463059
2022-11-05T08:58:47.069Z,9.463035
2022-11-05T08:59:47.060Z,9.463058
2022-11-05T09:00:47.107Z,9.463065
2022-11-05T09:01:48.330Z,9.462961
2022-11-05T09:02:47.042Z,9.462981
2022-11-05T09:03:47.034Z,9.462976
2022-11-05T09:04:47.732Z,9.462949
2022-11-05T09:05:47.055Z,9.463011
2022-11-05T09:06:47.023Z,9.463089
2022-11-05T09:07:47.020Z,9.463075
2022-11-05T09:08:47.044Z,9.463030
2022-11-05T09:09:47.012Z,9.462941
2022-11-05T09:10:47.044Z,9.462952
2022-11-05T09:12:10.650Z,9.463049
2022-11-05T09:12:47.963Z,9.463113
2022-11-05T09:13:46.998Z,9.463154
2022-11-05T09:14:46.964Z,9.462962
2022-11-05T09:15:47.044Z,9.462929
2022-11-05T09:16:46.999Z,9.462973
2022-11-05T09:17:47.071Z,9.463106
2022-11-05T09:18:46.924Z,9.463049
2022-11-05T09:19:46.979Z,9.462956
2022-11-05T09:20:46.920Z,9.463031
2022-11-05T09:21:46.916Z,9.463146
2022-11-05T09:22:47.151Z,9.463120
2022-11-05T09:23:46.919Z,9.463007
2022-11-05T09:24:46.903Z,9.462997
2022-11-05T09:25:46.905Z,9.463032
2022-11-05T09:26:46.865Z,9.463023
2022-11-05T09:27:46.860Z,9.463027
2022-11-05T09:28:46.870Z,9.463008
2022-11-05T09:29:46.850Z,9.462955
2022-11-05T09:30:46.889Z,9.463000
2022-11-05T09:31:46.844Z,9.463007
2022-11-05T09:32:46.858Z,9.463052
2022-11-05T09:33:47.034Z,9.463045
2022-11-05T09:34:46.838Z,9.463013
2022-11-05T09:35:46.811Z,9.463039
2022-11-05T09:36:46.869Z,9.462949
2022-11-05T09:37:46.800Z,9.462945
2022-11-05T09:38:47.532Z,9.462941
2022-11-05T09:39:47.305Z,9.462944
2022-11-05T09:40:46.785Z,9.462999
2022-11-05T09:41:46.785Z,9.463040
2022-11-05T09:42:46.775Z,9.463027
2022-11-05T09:43:46.753Z,9.462976
2022-11-05T09:44:49.539Z,9.462973
2022-11-05T09:45:46.782Z,9.462992
2022-11-05T09:46:46.734Z,9.462992
2022-11-05T09:47:46.740Z,9.462996
2022-11-05T09:48:46.727Z,9.462977
2022-11-05T09:49:46.737Z,9.463017
2022-11-05T09:50:46.712Z,9.463023
2022-11-05T09:51:46.708Z,9.463060
2022-11-05T09:52:46.695Z,9.463008
2022-11-05T09:53:46.691Z,9.462982
2022-11-05T09:54:46.684Z,9.462991
2022-11-05T09:55:47.109Z,9.463001
2022-11-05T09:56:46.667Z,9.463036
2022-11-05T09:57:46.652Z,9.463009
2022-11-05T09:58:46.654Z,9.463017
2022-11-05T09:59:46.647Z,9.462899
2022-11-05T10:00:46.669Z,9.462861
2022-11-05T10:01:46.752Z,9.462913
2022-11-05T10:02:46.627Z,9.463016
2022-11-05T10:03:46.605Z,9.463018
2022-11-05T10:04:46.605Z,9.462971
2022-11-05T10:05:47.607Z,9.463007
2022-11-05T10:06:46.586Z,9.462974
2022-11-05T10:07:46.590Z,9.462965
2022-11-05T10:08:46.638Z,9.462944
2022-11-05T10:09:46.568Z,9.462944
2022-11-05T10:10:46.563Z,9.462891
2022-11-05T10:11:47.088Z,9.462914
2022-11-05T10:12:46.576Z,9.462940
2022-11-05T10:13:46.539Z,9.462921
2022-11-05T10:14:46.543Z,9.462954
2022-11-05T10:15:46.531Z,9.463019
2022-11-05T10:16:46.519Z,9.463008
2022-11-05T10:17:46.506Z,9.463040
2022-11-05T10:18:46.496Z,9.463017
2022-11-05T10:19:46.493Z,9.463017
2022-11-05T10:20:46.530Z,9.463019
2022-11-05T10:22:49.615Z,9.462980
2022-11-05T10:23:46.496Z,9.462987
2022-11-05T10:24:46.504Z,9.463006
2022-11-05T10:25:46.454Z,9.463021
2022-11-05T10:26:47.422Z,9.463046
2022-11-05T10:27:46.453Z,9.463014
2022-11-05T10:28:46.419Z,9.463019
2022-11-05T10:29:46.441Z,9.463059
2022-11-05T10:30:46.413Z,9.463041
2022-11-05T10:31:46.397Z,9.463041
2022-11-05T10:32:46.404Z,9.463027
2022-11-05T10:33:47.352Z,9.462961
2022-11-05T10:34:46.439Z,9.463009
2022-11-05T10:35:46.384Z,9.463001
2022-11-05T10:36:46.381Z,9.462987
2022-11-05T10:37:46.381Z,9.463001
2022-11-05T10:38:46.353Z,9.463013
2022-11-05T10:39:46.354Z,9.463039
2022-11-05T10:40:46.339Z,9.463017
2022-11-05T10:41:46.333Z,9.463036
2022-11-05T10:42:46.333Z,9.463061
2022-11-05T10:43:46.340Z,9.463067
2022-11-05T10:44:46.340Z,9.463058
2022-11-05T10:45:46.317Z,9.463026
2022-11-05T10:46:46.346Z,9.463064
2022-11-05T10:47:46.294Z,9.463106
2022-11-05T10:48:46.293Z,9.463148
2022-11-05T10:49:46.408Z,9.463125
2022-11-05T10:50:46.270Z,9.463041
2022-11-05T10:51:46.284Z,9.463037
2022-11-05T10:52:46.263Z,9.463046
2022-11-05T10:53:46.312Z,9.463056
2022-11-05T10:54:46.266Z,9.463053
2022-11-05T10:55:46.237Z,9.463054
2022-11-05T10:56:46.217Z,9.463042
2022-11-05T10:57:46.227Z,9.462998
2022-11-05T10:58:46.228Z,9.463042
2022-11-05T10:59:46.204Z,9.462964
2022-11-05T11:00:46.287Z,9.463025
2022-11-05T11:01:46.279Z,9.463023
2022-11-05T11:02:46.172Z,9.462980
2022-11-05T11:03:46.167Z,9.462939
2022-11-05T11:04:46.212Z,9.462973
2022-11-05T11:05:46.161Z,9.462968
2022-11-05T11:06:46.153Z,9.462929
2022-11-05T11:07:46.145Z,9.462953
2022-11-05T11:08:46.130Z,9.462931
2022-11-05T11:09:46.613Z,9.463010
2022-11-05T11:10:46.115Z,9.463074
2022-11-05T11:11:46.109Z,9.463063
2022-11-05T11:12:46.106Z,9.463065
2022-11-05T11:13:46.156Z,9.463060
2022-11-05T11:14:46.108Z,9.463063
2022-11-05T11:15:46.085Z,9.463067
2022-11-05T11:16:46.082Z,9.463115
2022-11-05T11:17:46.203Z,9.463112
2022-11-05T11:18:46.082Z,9.463099
2022-11-05T11:19:46.075Z,9.463034
2022-11-05T11:20:46.044Z,9.462974
2022-11-05T11:21:46.054Z,9.463014
2022-11-05T11:22:46.066Z,9.463045
2022-11-05T11:23:46.099Z,9.463057
2022-11-05T11:24:46.035Z,9.463032
2022-11-05T11:25:46.043Z,9.463093
2022-11-05T11:26:46.014Z,9.463049
2022-11-05T11:27:46.005Z,9.463081
2022-11-05T11:28:46.805Z,9.462974
2022-11-05T11:29:49.382Z,9.463007
2022-11-05T11:30:45.979Z,9.463019
2022-11-05T11:31:45.978Z,9.463033
2022-11-05T11:32:45.970Z,9.463019
2022-11-05T11:33:46.000Z,9.463038
2022-11-05T11:34:45.948Z,9.463029
2022-11-05T11:35:45.953Z,9.463037
2022-11-05T11:36:45.925Z,9.463037
2022-11-05T11:37:45.927Z,9.463002
2022-11-05T11:38:45.964Z,9.463037
2022-11-05T11:39:45.911Z,9.463015
2022-11-05T11:40:45.917Z,9.463022
2022-11-05T11:41:45.927Z,9.463012
2022-11-05T11:42:45.904Z,9.462999
2022-11-05T11:43:45.887Z,9.463006
2022-11-05T11:44:45.912Z,9.463021
2022-11-05T11:45:45.909Z,9.463026